Poblet — EBSD — position and weather

sailwx.info

Track history (hours):
 
Tides and Currents Weather Stations Pressure Air Temp Water Temp Dewpoint Dewpoint Depression Visibility Wind Speed Wind Dir Waves Ship Positions

Poblet

Last reported at 2017-Sep-26 23:42 UTC. Time now 2017-Oct-19 20:06 UTC.
Position N 41°06' E 001°14'.
Warning: this ship's position is 22 days out of date.

Length 29 m; draft 4.8 m.

Type: Tug. MMSI: 224220000.

Date/timePositionNaut miles runAvg speedWind from/ knotsBaromVisibWave heightAir tempDewpointWater temp
2017-Sep-26 23:42N 41°06' E 001°14'0 0.0
2017-Sep-25 09:50N 41°06' E 001°14'0 0.0
2017-Sep-25 09:30N 41°06' E 001°14'3 2.1
2017-Sep-25 08:04N 41°03' E 001°13'1 3.6
2017-Sep-25 07:52N 41°03' E 001°14'4 4.2
2017-Sep-25 07:00N 41°06' E 001°14'0 0.0
2017-Sep-25 03:45N 41°06' E 001°14'0 0.0
2017-Sep-25 03:21N 41°06' E 001°14'0 0.0
2017-Sep-25 02:56N 41°06' E 001°14'0 0.0
2017-Sep-25 02:29N 41°06' E 001°14'0 0.0
2017-Sep-25 02:00N 41°06' E 001°14'0 0.0
2017-Sep-25 01:25N 41°06' E 001°14'0 0.0
2017-Sep-25 00:44N 41°06' E 001°14'0 0.0
2017-Sep-25 00:29N 41°06' E 001°14'0 0.0
2017-Sep-25 00:00N 41°06' E 001°14'0 0.0
2017-Sep-24 23:20N 41°06' E 001°14'0 0.0
2017-Sep-24 22:58N 41°06' E 001°14'0 0.0
2017-Sep-24 22:28N 41°06' E 001°14'0 0.0
2017-Sep-24 21:49N 41°06' E 001°14'0 0.0
2017-Sep-24 21:29N 41°06' E 001°14'0 0.0
2017-Sep-24 20:57N 41°06' E 001°14'0 0.0
2017-Sep-24 20:27N 41°06' E 001°14'0 0.0
2017-Sep-24 19:58N 41°06' E 001°14'0 0.0
2017-Sep-24 19:27N 41°06' E 001°14'0 0.0
2017-Sep-24 18:48N 41°06' E 001°14'0 0.0
2017-Sep-24 18:28N 41°06' E 001°14'0 0.0
2017-Sep-24 17:58N 41°06' E 001°14'2 0.8
2017-Sep-24 15:54N 41°05' E 001°13'1 2.8
2017-Sep-24 15:27N 41°06' E 001°14'0 0.5
2017-Sep-24 14:28N 41°06' E 001°14'0 0.0
2017-Sep-24 13:43N 41°06' E 001°14'0 0.0
2017-Sep-24 13:30N 41°06' E 001°14'0 0.0
2017-Sep-24 13:00N 41°06' E 001°14'0 0.0
2017-Sep-24 12:30N 41°06' E 001°14'0 0.0
2017-Sep-24 12:00N 41°06' E 001°14'0 0.0
2017-Sep-24 11:18N 41°06' E 001°14'0 0.0
2017-Sep-24 11:00N 41°06' E 001°14'0 0.0
2017-Sep-23 21:01N 41°06' E 001°14'0 0.0
2017-Sep-23 20:48N 41°06' E 001°14'0 0.0
2017-Sep-23 20:30N 41°06' E 001°14'0 0.0
2017-Sep-23 19:57N 41°06' E 001°14'  
2017-Sep-20 15:26N 41°06' E 001°14'0 0.0
2017-Sep-20 14:58N 41°06' E 001°14'  
Track history (hours):
 
Tides and Currents Weather Stations Pressure Air Temp Water Temp Dewpoint Dewpoint Depression Visibility Wind Speed Wind Dir Waves Ship Positions

Poblet

Last reported at 2017-Sep-26 23:42 UTC. Time now 2017-Oct-19 20:06 UTC.
Position N 41°06' E 001°14'.
Warning: this ship's position is 22 days out of date.

Length 29 m; draft 4.8 m.

Type: Tug. MMSI: 224220000.

Date/timePositionNaut miles runAvg speedWind from/ knotsBaromVisibWave heightAir tempDewpointWater temp
2017-Sep-26 23:42N 41°06' E 001°14'0 0.0
2017-Sep-25 09:50N 41°06' E 001°14'0 0.0
2017-Sep-25 09:30N 41°06' E 001°14'3 2.1
2017-Sep-25 08:04N 41°03' E 001°13'1 3.6
2017-Sep-25 07:52N 41°03' E 001°14'4 4.2
2017-Sep-25 07:00N 41°06' E 001°14'0 0.0
2017-Sep-25 03:45N 41°06' E 001°14'0 0.0
2017-Sep-25 03:21N 41°06' E 001°14'0 0.0
2017-Sep-25 02:56N 41°06' E 001°14'0 0.0
2017-Sep-25 02:29N 41°06' E 001°14'0 0.0
2017-Sep-25 02:00N 41°06' E 001°14'0 0.0
2017-Sep-25 01:25N 41°06' E 001°14'0 0.0
2017-Sep-25 00:44N 41°06' E 001°14'0 0.0
2017-Sep-25 00:29N 41°06' E 001°14'0 0.0
2017-Sep-25 00:00N 41°06' E 001°14'0 0.0
2017-Sep-24 23:20N 41°06' E 001°14'0 0.0
2017-Sep-24 22:58N 41°06' E 001°14'0 0.0
2017-Sep-24 22:28N 41°06' E 001°14'0 0.0
2017-Sep-24 21:49N 41°06' E 001°14'0 0.0
2017-Sep-24 21:29N 41°06' E 001°14'0 0.0
2017-Sep-24 20:57N 41°06' E 001°14'0 0.0
2017-Sep-24 20:27N 41°06' E 001°14'0 0.0
2017-Sep-24 19:58N 41°06' E 001°14'0 0.0
2017-Sep-24 19:27N 41°06' E 001°14'0 0.0
2017-Sep-24 18:48N 41°06' E 001°14'0 0.0
2017-Sep-24 18:28N 41°06' E 001°14'0 0.0
2017-Sep-24 17:58N 41°06' E 001°14'2 0.8
2017-Sep-24 15:54N 41°05' E 001°13'1 2.8
2017-Sep-24 15:27N 41°06' E 001°14'0 0.5
2017-Sep-24 14:28N 41°06' E 001°14'0 0.0
2017-Sep-24 13:43N 41°06' E 001°14'0 0.0
2017-Sep-24 13:30N 41°06' E 001°14'0 0.0
2017-Sep-24 13:00N 41°06' E 001°14'0 0.0
2017-Sep-24 12:30N 41°06' E 001°14'0 0.0
2017-Sep-24 12:00N 41°06' E 001°14'0 0.0
2017-Sep-24 11:18N 41°06' E 001°14'0 0.0
2017-Sep-24 11:00N 41°06' E 001°14'0 0.0
2017-Sep-23 21:01N 41°06' E 001°14'0 0.0
2017-Sep-23 20:48N 41°06' E 001°14'0 0.0
2017-Sep-23 20:30N 41°06' E 001°14'0 0.0
2017-Sep-23 19:57N 41°06' E 001°14'  
2017-Sep-20 15:26N 41°06' E 001°14'0 0.0
2017-Sep-20 14:58N 41°06' E 001°14'  

Dump ship's entire track history